Time;durP1;ratioP1;P1;durP2;ratioP2;P2;SDS_P1;SDS_P2;PMS_P1;PMS_P2;Temp;Humidity;BMP_temperature;BMP_pressure;BME280_temperature;BME280_humidity;BME280_pressure;Samples;Min_cycle;Max_cycle;Signal;HPM_P1;HPM_P2
2023/07/21 00:00:21;;;;;;;3.33;1.73;;;19.90;93.20;;;20.75;80.00;97699.22;5062897;28;20967;-85
2023/07/21 00:02:51;;;;;;;2.20;1.60;;;19.90;93.40;;;20.76;80.99;97695.47;5064483;28;20463;-86
2023/07/21 00:05:24;;;;;;;3.33;2.10;;;19.90;93.80;;;20.65;82.29;97695.72;5061739;28;20490;-85
2023/07/21 00:07:54;;;;;;;5.73;1.80;;;19.90;93.80;;;20.61;83.01;97699.94;5059926;28;20463;-86
2023/07/21 00:10:25;;;;;;;5.63;1.73;;;19.80;93.80;;;20.58;83.43;97694.06;5061801;28;20493;-86
2023/07/21 00:12:56;;;;;;;3.07;1.80;;;19.80;93.90;;;20.59;83.92;97701.00;5061725;28;21151;-87
2023/07/21 00:15:27;;;;;;;2.07;1.70;;;19.80;94.10;;;20.54;83.15;97701.00;5063000;28;20903;-85
2023/07/21 00:17:58;;;;;;;4.47;1.90;;;19.70;93.60;;;20.37;82.98;97689.75;5068331;28;20480;-85
2023/07/21 00:20:30;;;;;;;3.80;1.70;;;19.80;93.10;;;20.32;82.50;97689.72;5061273;28;20958;-86
2023/07/21 00:23:01;;;;;;;4.73;1.63;;;19.80;93.00;;;20.27;82.33;97679.06;5063290;28;20858;-85
2023/07/21 00:25:31;;;;;;;2.70;1.70;;;19.70;93.00;;;20.33;82.29;97683.34;5068422;28;20556;-86
2023/07/21 00:28:02;;;;;;;3.80;1.80;;;19.70;93.30;;;20.41;82.41;97688.16;5064697;28;20471;-85
2023/07/21 00:30:32;;;;;;;3.33;1.83;;;19.60;93.80;;;20.44;82.45;97690.28;5065614;28;20951;-86
2023/07/21 00:33:03;;;;;;;2.40;1.90;;;19.60;93.90;;;20.46;82.65;97688.19;5066760;28;20455;-87
2023/07/21 00:35:35;;;;;;;3.47;1.50;;;19.60;93.90;;;20.35;84.30;97678.56;5067746;28;20449;-86
2023/07/21 00:38:05;;;;;;;2.13;1.30;;;19.60;94.00;;;20.31;84.59;97680.13;5068792;28;20468;-86
2023/07/21 00:40:38;;;;;;;2.30;1.77;;;19.50;94.10;;;20.42;84.19;97683.66;5065423;28;20468;-85
2023/07/21 00:43:09;;;;;;;4.70;1.70;;;19.50;94.30;;;20.35;84.92;97675.91;5069946;28;20862;-87
2023/07/21 00:45:40;;;;;;;3.60;1.60;;;19.50;94.10;;;20.34;84.38;97671.66;5065026;28;20496;-84
2023/07/21 00:48:11;;;;;;;5.57;1.83;;;19.50;94.20;;;20.36;84.52;97671.41;5067679;28;20463;-86
2023/07/21 00:50:46;;;;;;;1.80;1.53;;;19.50;94.20;;;20.25;85.03;97667.88;5072667;28;20533;-86
2023/07/21 00:53:16;;;;;;;5.37;1.60;;;19.40;94.00;;;20.19;85.32;97663.59;5074065;28;20554;-86
2023/07/21 00:55:47;;;;;;;3.73;1.60;;;19.40;94.20;;;20.28;85.22;97650.63;5072764;28;20461;-86
2023/07/21 00:58:22;;;;;;;2.00;1.80;;;19.40;94.40;;;20.27;84.96;97647.19;5070547;28;21064;-86
2023/07/21 01:00:52;;;;;;;2.30;1.70;;;19.40;94.20;;;20.29;84.69;97652.25;5070084;28;20486;-86
2023/07/21 01:03:22;;;;;;;17.17;2.40;;;19.40;94.30;;;20.25;84.85;97649.28;5067487;28;20453;-86
2023/07/21 01:05:56;;;;;;;2.10;1.70;;;19.40;94.30;;;20.21;85.34;97645.53;5066864;28;20491;-86
2023/07/21 01:08:27;;;;;;;8.67;2.27;;;19.40;94.30;;;20.27;85.19;97651.69;5068241;28;20467;-85
2023/07/21 01:10:57;;;;;;;2.57;1.77;;;19.30;94.20;;;20.26;85.10;97648.22;5066865;28;20970;-86
2023/07/21 01:13:29;;;;;;;3.60;1.70;;;19.30;94.30;;;20.23;85.35;97648.75;5066090;28;20473;-86
2023/07/21 01:16:01;;;;;;;5.17;1.80;;;19.30;94.40;;;20.12;85.72;97641.78;5063503;28;20479;-86
2023/07/21 01:18:32;;;;;;;6.90;2.13;;;19.30;94.50;;;20.01;86.75;97640.13;5067310;28;20474;-86
2023/07/21 01:21:05;;;;;;;3.10;1.60;;;19.20;94.50;;;19.98;87.19;97638.00;5065171;28;20899;-85
2023/07/21 01:23:46;;;;;;;4.30;1.70;;;19.20;94.70;;;20.00;86.86;97641.97;5068004;28;20875;-85
2023/07/21 01:26:19;;;;;;;2.50;1.70;;;19.10;94.70;;;20.02;86.74;97639.06;5066455;28;20842;-87
2023/07/21 01:28:50;;;;;;;5.87;1.80;;;19.10;94.70;;;19.88;87.74;97632.63;5065751;28;20494;-86
2023/07/21 01:31:23;;;;;;;3.93;1.70;;;19.10;94.60;;;19.79;88.28;97629.63;5064050;28;20468;-85
2023/07/21 01:33:57;;;;;;;6.40;1.83;;;19.00;94.80;;;19.86;88.31;97630.22;5067391;28;20554;-86
2023/07/21 01:36:30;;;;;;;2.40;1.80;;;19.00;94.90;;;19.86;87.71;97632.06;5067085;28;20550;-86
2023/07/21 01:39:01;;;;;;;4.17;2.10;;;19.00;94.90;;;19.85;87.95;97633.13;5064289;28;20482;-87
2023/07/21 01:41:35;;;;;;;2.80;2.00;;;18.90;95.00;;;19.81;88.15;97627.53;5068127;28;20546;-86
2023/07/21 01:44:06;;;;;;;2.20;1.80;;;19.00;94.80;;;19.71;88.97;97629.31;5063561;28;20494;-85
2023/07/21 01:46:35;;;;;;;3.60;1.60;;;19.00;94.60;;;19.72;89.08;97622.94;5064931;28;20459;-86
2023/07/21 01:49:06;;;;;;;2.33;1.70;;;19.00;94.90;;;19.74;88.89;97621.66;5066193;28;20560;-86
2023/07/21 01:51:39;;;;;;;2.20;1.60;;;18.90;94.80;;;19.78;88.09;97627.25;5068156;28;20500;-86
2023/07/21 01:54:25;;;;;;;2.10;1.80;;;18.90;94.70;;;19.78;88.41;97627.25;5063132;28;20459;-85
2023/07/21 01:57:04;;;;;;;3.70;1.80;;;18.90;95.00;;;19.77;88.46;97623.78;5062198;28;20546;-86
2023/07/21 01:59:34;;;;;;;5.43;1.90;;;18.90;95.00;;;19.73;88.64;97625.34;5061856;28;20459;-85
2023/07/21 02:02:05;;;;;;;4.33;2.20;;;18.90;94.70;;;19.72;88.94;97621.09;5068020;28;20482;-86
2023/07/21 02:04:35;;;;;;;5.20;1.87;;;18.90;94.90;;;19.69;88.88;97626.91;5069147;28;20928;-85
2023/07/21 02:07:04;;;;;;;2.57;1.90;;;18.90;95.00;;;19.74;89.17;97610.25;5066877;28;20467;-87
2023/07/21 02:09:34;;;;;;;2.83;1.90;;;18.90;95.20;;;19.74;88.76;97615.53;5069824;28;20467;-85
2023/07/21 02:12:07;;;;;;;2.43;1.90;;;18.90;95.10;;;19.66;89.35;97613.38;5065846;28;20463;-85
2023/07/21 02:14:38;;;;;;;2.93;1.70;;;18.90;95.00;;;19.55;90.38;97609.84;5064459;28;20469;-86
2023/07/21 02:17:08;;;;;;;2.60;1.90;;;18.80;95.00;;;19.53;90.73;97606.66;5065160;28;20464;-86
2023/07/21 02:19:37;;;;;;;2.90;1.90;;;18.80;95.40;;;19.56;90.81;97592.88;5066182;28;20470;-87
2023/07/21 02:22:08;;;;;;;5.63;2.20;;;18.80;95.50;;;19.52;91.35;97599.75;5066845;28;21055;-86
2023/07/21 02:24:38;;;;;;;2.10;1.80;;;18.80;95.30;;;19.58;91.19;97596.88;5066831;28;20500;-86
2023/07/21 02:27:09;;;;;;;5.83;1.87;;;18.70;95.50;;;19.57;91.09;97595.28;5067077;28;20483;-86
2023/07/21 02:29:39;;;;;;;2.60;1.70;;;18.70;95.70;;;19.52;92.07;97602.38;5066321;28;20485;-86
2023/07/21 02:32:10;;;;;;;5.60;2.00;;;18.70;95.60;;;19.50;92.31;97600.00;5066483;28;20461;-86
2023/07/21 02:34:41;;;;;;;2.80;2.07;;;18.70;95.80;;;19.43;93.11;97588.81;5068053;28;20464;-85
2023/07/21 02:37:12;;;;;;;3.10;1.63;;;18.70;95.60;;;19.46;93.13;97590.97;5067768;28;20458;-86
2023/07/21 02:39:42;;;;;;;2.60;1.80;;;18.70;96.20;;;19.45;93.04;97593.84;5066514;28;20484;-86
2023/07/21 02:42:14;;;;;;;2.33;1.67;;;18.70;95.80;;;19.43;93.64;97590.66;5069942;28;20459;-85
2023/07/21 02:44:44;;;;;;;5.50;2.03;;;18.70;95.90;;;19.41;93.81;97595.41;5066843;28;21004;-86
2023/07/21 02:47:17;;;;;;;5.93;2.27;;;18.70;95.90;;;19.38;94.28;97588.75;5068242;28;20471;-86
2023/07/21 02:49:47;;;;;;;3.80;2.20;;;18.60;95.80;;;19.44;93.87;97590.41;5066708;28;20463;-87
2023/07/21 02:52:16;;;;;;;2.37;1.80;;;18.60;96.00;;;19.45;93.91;97591.19;5065177;28;20452;-86
2023/07/21 02:54:47;;;;;;;4.03;1.50;;;18.60;96.00;;;19.40;94.41;97569.94;5067298;28;20468;-86
2023/07/21 02:57:18;;;;;;;3.60;2.00;;;18.60;95.90;;;19.45;94.18;97570.78;5067785;28;21083;-86
2023/07/21 02:59:49;;;;;;;2.47;1.80;;;18.60;96.10;;;19.36;94.75;97576.78;5066906;28;20462;-86
2023/07/21 03:02:19;;;;;;;2.37;1.67;;;18.60;96.10;;;19.33;95.17;97575.44;5064191;28;20479;-86
2023/07/21 03:04:50;;;;;;;2.57;1.60;;;18.60;96.00;;;19.28;95.70;97570.09;5062534;28;20448;-86
2023/07/21 03:07:22;;;;;;;3.37;1.73;;;18.50;96.20;;;19.22;96.42;97575.63;5062766;28;20517;-85
2023/07/21 03:09:54;;;;;;;4.20;2.30;;;18.50;96.20;;;19.20;96.81;97586.47;5061486;28;20530;-86
2023/07/21 03:12:25;;;;;;;4.10;2.00;;;18.50;96.30;;;19.16;97.69;97579.28;5061428;28;20461;-86
2023/07/21 03:14:56;;;;;;;5.80;2.10;;;18.40;96.40;;;19.18;97.35;97577.97;5062560;28;20468;-86
2023/07/21 03:17:26;;;;;;;4.17;2.17;;;18.40;96.40;;;19.26;97.05;97582.84;5061529;28;22674;-85
2023/07/21 03:19:55;;;;;;;2.53;2.00;;;18.40;96.60;;;19.28;96.53;97583.38;5060880;28;20829;-87
2023/07/21 03:22:26;;;;;;;5.10;3.30;;;18.40;96.40;;;19.22;96.93;97576.44;5061390;28;20469;-84
2023/07/21 03:24:58;;;;;;;3.90;2.10;;;18.50;96.30;;;19.24;97.25;97584.13;5063028;28;20640;-85
2023/07/21 03:27:30;;;;;;;2.03;1.67;;;18.50;96.60;;;19.28;97.18;97585.22;5063010;28;20453;-86
2023/07/21 03:30:01;;;;;;;4.20;2.10;;;18.40;96.80;;;19.33;97.06;97590.56;5062051;28;20460;-84
2023/07/21 03:32:31;;;;;;;2.53;2.03;;;18.40;96.80;;;19.28;97.05;97588.66;5068019;28;20461;-86
2023/07/21 03:35:04;;;;;;;3.83;2.37;;;18.40;96.60;;;19.21;97.66;97580.13;5068431;28;20472;-85
2023/07/21 03:37:35;;;;;;;3.40;1.93;;;18.40;96.60;;;19.18;97.75;97583.28;5069291;28;20463;-85
2023/07/21 03:40:06;;;;;;;14.40;9.43;;;18.40;96.50;;;19.13;98.08;97574.47;5066316;28;20476;-90
2023/07/21 03:42:37;;;;;;;5.97;2.53;;;18.40;96.60;;;19.19;97.43;97578.78;5060990;28;20537;-85
2023/07/21 03:45:10;;;;;;;6.87;1.73;;;18.40;96.30;;;19.13;97.55;97580.59;5061100;28;20460;-85
2023/07/21 03:47:39;;;;;;;5.90;1.70;;;18.30;96.40;;;19.13;97.72;97579.78;5060586;28;20474;-86
2023/07/21 03:50:10;;;;;;;3.07;1.93;;;18.30;96.60;;;19.05;98.58;97573.13;5066384;28;20464;-86
2023/07/21 03:52:41;;;;;;;3.77;1.80;;;18.30;96.70;;;19.05;98.32;97581.06;5064060;28;21107;-86
2023/07/21 03:55:11;;;;;;;5.20;2.10;;;18.30;96.50;;;18.99;98.43;97574.09;5061589;28;20469;-85
2023/07/21 03:57:42;;;;;;;6.67;3.30;;;18.30;96.60;;;18.93;98.86;97572.47;5064947;28;20543;-87
2023/07/21 04:00:14;;;;;;;10.30;1.97;;;18.20;96.50;;;18.85;99.65;97572.91;5059971;28;20468;-85
2023/07/21 04:02:44;;;;;;;2.20;1.93;;;18.20;96.50;;;18.86;99.25;97583.28;5063619;28;20533;-86
2023/07/21 04:05:15;;;;;;;3.20;1.90;;;18.10;96.70;;;18.88;99.30;97581.16;5065099;28;20525;-86
2023/07/21 04:07:46;;;;;;;5.93;2.47;;;18.10;96.80;;;18.79;100.00;97581.88;5068069;28;20469;-84
2023/07/21 04:10:16;;;;;;;4.07;2.30;;;18.10;96.60;;;18.73;100.00;97583.69;5065432;28;20472;-85
2023/07/21 04:12:48;;;;;;;5.27;2.17;;;18.10;96.90;;;18.78;100.00;97580.28;5067243;28;20916;-85
2023/07/21 04:15:18;;;;;;;6.30;2.27;;;18.00;96.80;;;18.78;100.00;97580.28;5067081;28;20539;-84
2023/07/21 04:17:49;;;;;;;2.73;1.90;;;18.00;97.00;;;18.81;100.00;97585.09;5067354;28;20488;-85
2023/07/21 04:20:20;;;;;;;5.50;2.10;;;18.00;96.90;;;18.86;100.00;97590.41;5069380;28;20460;-86
2023/07/21 04:22:51;;;;;;;2.63;1.90;;;18.00;97.10;;;18.90;99.59;97594.16;5062904;28;20460;-86
2023/07/21 04:25:21;;;;;;;2.97;1.90;;;18.00;96.80;;;18.84;100.00;97600.47;5064540;28;20468;-89
2023/07/21 04:27:53;;;;;;;3.77;2.23;;;18.00;96.90;;;18.77;100.00;97599.88;5067963;28;20495;-85
2023/07/21 04:30:23;;;;;;;2.50;1.80;;;18.00;97.00;;;18.78;100.00;97596.97;5068643;28;20474;-85
2023/07/21 04:32:53;;;;;;;2.60;2.13;;;18.00;97.10;;;18.76;100.00;97587.66;5068024;28;20474;-86
2023/07/21 04:35:23;;;;;;;2.10;1.90;;;18.00;97.10;;;18.76;100.00;97585.03;5066073;28;20475;-86
2023/07/21 04:37:51;;;;;;;2.90;2.03;;;18.00;97.10;;;18.72;100.00;97591.88;5065423;28;20866;-85
2023/07/21 04:40:21;;;;;;;2.40;1.60;;;18.00;97.10;;;18.73;100.00;97588.19;5067711;28;20464;-84
2023/07/21 04:42:53;;;;;;;2.63;1.73;;;18.00;97.40;;;18.73;100.00;97582.88;5067776;28;21108;-85
2023/07/21 04:45:24;;;;;;;5.10;1.80;;;17.90;97.30;;;18.74;100.00;97589.78;5069219;28;20456;-86
2023/07/21 04:47:55;;;;;;;2.13;1.90;;;17.90;97.30;;;18.75;100.00;97586.06;5073094;28;21049;-85
2023/07/21 04:50:25;;;;;;;6.23;1.60;;;17.90;97.50;;;18.70;100.00;97589.47;5072090;28;20469;-85
2023/07/21 04:52:56;;;;;;;3.30;1.83;;;17.90;97.40;;;18.70;100.00;97586.03;5069566;28;20491;-84
2023/07/21 04:55:28;;;;;;;2.80;1.97;;;17.90;97.60;;;18.69;100.00;97581.78;5068007;28;20461;-85
2023/07/21 04:58:01;;;;;;;2.90;2.03;;;17.90;97.70;;;18.72;100.00;97589.22;5066152;28;20487;-85
2023/07/21 05:00:33;;;;;;;6.73;2.27;;;17.90;97.80;;;18.68;100.00;97588.13;5068922;28;20959;-85
2023/07/21 05:03:03;;;;;;;2.30;1.70;;;17.90;97.60;;;18.68;100.00;97588.91;5068776;28;20568;-85
2023/07/21 05:05:35;;;;;;;1.97;1.70;;;17.80;98.00;;;18.69;100.00;97587.06;5068202;28;20464;-84
2023/07/21 05:08:05;;;;;;;3.13;2.07;;;17.80;98.00;;;18.66;100.00;97587.56;5069515;28;20540;-84
2023/07/21 05:10:36;;;;;;;2.60;1.80;;;17.80;98.20;;;18.66;100.00;97587.56;5067823;28;20456;-85
2023/07/21 05:13:07;;;;;;;5.73;1.93;;;17.80;98.00;;;18.67;100.00;97586.53;5068565;28;20464;-84
2023/07/21 05:15:39;;;;;;;4.30;2.00;;;17.80;97.90;;;18.59;100.00;97582.47;5063811;28;20941;-86
2023/07/21 05:18:10;;;;;;;3.40;2.43;;;17.80;97.60;;;18.62;100.00;97587.28;5066486;28;20488;-85
2023/07/21 05:20:42;;;;;;;3.67;2.03;;;17.80;98.10;;;18.65;100.00;97592.06;5067596;28;20466;-84
2023/07/21 05:23:11;;;;;;;3.27;2.00;;;17.80;98.20;;;18.67;100.00;97592.63;5066804;28;20531;-84
2023/07/21 05:25:42;;;;;;;4.87;2.27;;;17.80;97.90;;;18.71;100.00;97595.59;5066939;28;20464;-84
2023/07/21 05:28:13;;;;;;;3.70;2.23;;;17.80;97.90;;;18.75;100.00;97591.38;5071415;28;20481;-85
2023/07/21 05:30:48;;;;;;;3.17;1.80;;;17.80;97.80;;;18.74;100.00;97595.09;5067685;28;20479;-85
2023/07/21 05:33:18;;;;;;;9.13;2.03;;;17.90;98.10;;;18.76;100.00;97585.81;5071100;28;20455;-85
2023/07/21 05:35:48;;;;;;;4.53;2.20;;;17.90;98.40;;;18.78;100.00;97585.59;5071917;28;21038;-84
2023/07/21 05:38:19;;;;;;;6.27;2.67;;;17.80;98.40;;;18.84;100.00;97580.09;5069835;28;20542;-85
2023/07/21 05:40:58;;;;;;;3.30;2.30;;;17.90;98.30;;;18.91;100.00;97585.19;5067283;28;20464;-85
2023/07/21 05:43:29;;;;;;;4.33;2.17;;;17.90;98.10;;;18.94;100.00;97582.03;5070566;28;20452;-85
2023/07/21 05:45:59;;;;;;;5.17;2.40;;;18.00;97.90;;;18.99;100.00;97582.03;5070936;28;20976;-85
2023/07/21 05:48:29;;;;;;;5.33;2.10;;;18.00;97.70;;;19.02;100.00;97579.69;5064560;28;20523;-85
2023/07/21 05:50:59;;;;;;;3.37;2.07;;;18.10;97.60;;;19.07;100.00;97584.25;5071073;28;20464;-84
2023/07/21 05:53:29;;;;;;;8.67;2.30;;;18.00;97.60;;;19.09;100.00;97579.47;5069317;28;20963;-84
2023/07/21 05:56:00;;;;;;;2.83;1.80;;;18.10;97.10;;;19.09;100.00;97582.13;5071614;28;20460;-85
2023/07/21 05:58:34;;;;;;;5.37;2.23;;;18.20;96.90;;;19.12;100.00;97576.34;5074270;28;21451;-85
2023/07/21 06:01:04;;;;;;;5.10;2.10;;;18.20;96.90;;;19.15;99.58;97580.34;5074090;28;20460;-84
2023/07/21 06:03:37;;;;;;;2.60;2.00;;;18.30;96.80;;;19.16;98.65;97582.72;5068816;28;20474;-84
2023/07/21 06:06:07;;;;;;;2.50;1.93;;;18.30;96.50;;;19.20;98.39;97581.16;5065428;28;20468;-85
2023/07/21 06:08:39;;;;;;;4.33;2.27;;;18.30;96.20;;;19.25;97.45;97581.22;5072827;28;20537;-84
2023/07/21 06:11:09;;;;;;;4.70;1.60;;;18.30;96.30;;;19.25;96.31;97585.72;5068600;28;20464;-84
2023/07/21 06:13:42;;;;;;;2.83;1.97;;;18.40;96.10;;;19.32;96.23;97581.81;5070439;28;20468;-84
2023/07/21 06:16:11;;;;;;;6.47;2.63;;;18.40;96.00;;;19.36;95.46;97577.59;5068102;28;20476;-85
2023/07/21 06:18:42;;;;;;;10.70;2.40;;;18.50;96.20;;;19.35;93.79;97583.94;5065013;28;20502;-84
2023/07/21 06:21:13;;;;;;;5.13;1.90;;;18.60;96.00;;;19.38;93.69;97583.44;5069526;28;20455;-84
2023/07/21 06:23:43;;;;;;;2.07;1.47;;;18.60;95.70;;;19.43;93.62;97588.81;5069482;28;20488;-84
2023/07/21 06:26:13;;;;;;;3.00;1.77;;;18.60;95.50;;;19.47;93.04;97581.16;5068742;28;20460;-84
2023/07/21 06:28:44;;;;;;;5.97;2.20;;;18.60;95.30;;;19.47;90.93;97584.59;5066854;28;20480;-85
2023/07/21 06:31:14;;;;;;;3.27;1.50;;;18.60;95.00;;;19.48;89.72;97582.72;5068601;28;20469;-84
2023/07/21 06:33:44;;;;;;;3.90;1.77;;;18.70;94.90;;;19.54;90.22;97587.81;5067221;28;20503;-84
2023/07/21 06:36:14;;;;;;;3.13;2.17;;;18.70;95.00;;;19.58;89.08;97586.25;5069341;28;20508;-84
2023/07/21 06:38:45;;;;;;;2.60;1.57;;;18.80;94.80;;;19.63;88.37;97588.16;5070353;28;20468;-84
2023/07/21 06:41:15;;;;;;;2.60;1.60;;;18.80;94.50;;;19.65;87.53;97583.38;5068918;28;20463;-84
2023/07/21 06:43:47;;;;;;;2.50;1.60;;;18.80;94.50;;;19.73;87.23;97584.75;5068561;28;21034;-85
2023/07/21 06:46:17;;;;;;;2.50;1.80;;;18.80;94.40;;;19.75;86.36;97587.97;5066036;28;20956;-84
2023/07/21 06:48:47;;;;;;;2.83;1.70;;;18.90;94.10;;;19.81;85.78;97590.38;5070502;28;20504;-84
2023/07/21 06:51:18;;;;;;;3.30;1.80;;;18.90;93.90;;;19.86;85.37;97587.75;5068746;28;20471;-84
2023/07/21 06:53:49;;;;;;;4.53;2.17;;;19.00;94.20;;;19.89;84.21;97591.72;5066350;28;20966;-85
2023/07/21 06:56:20;;;;;;;2.33;1.47;;;19.00;93.90;;;19.90;82.57;97588.84;5066925;28;20463;-83
2023/07/21 06:58:51;;;;;;;3.53;1.63;;;18.90;93.50;;;19.95;83.05;97585.41;5068951;28;20462;-85
2023/07/21 07:01:21;;;;;;;2.60;1.43;;;19.10;93.60;;;19.99;82.22;97581.19;5068930;28;20468;-84
2023/07/21 07:03:52;;;;;;;4.13;1.80;;;19.00;93.50;;;20.04;82.36;97575.88;5068427;28;20493;-84
2023/07/21 07:06:23;;;;;;;4.00;1.40;;;19.10;93.50;;;20.07;81.28;97584.13;5071048;28;20458;-84
2023/07/21 07:08:53;;;;;;;3.97;1.80;;;19.10;93.40;;;20.12;81.30;97586.03;5076234;28;20501;-84
2023/07/21 07:11:23;;;;;;;1.60;1.30;;;19.20;93.50;;;20.17;81.11;97580.72;5070229;28;21021;-84
2023/07/21 07:13:56;;;;;;;3.77;1.63;;;19.30;93.30;;;20.22;80.76;97579.94;5067192;28;20572;-84
2023/07/21 07:16:26;;;;;;;4.93;1.90;;;19.20;93.20;;;20.28;81.05;97578.94;5070475;28;21557;-84
2023/07/21 07:18:56;;;;;;;1.90;1.40;;;19.40;93.60;;;20.35;80.88;97587.47;5070196;28;20488;-84
2023/07/21 07:21:27;;;;;;;2.67;1.60;;;19.40;93.20;;;20.39;80.86;97586.69;5066056;28;21624;-84
2023/07/21 07:23:57;;;;;;;3.63;2.17;;;19.50;93.20;;;20.43;80.50;97582.44;5065766;28;20829;-84
2023/07/21 07:26:28;;;;;;;3.17;1.90;;;19.50;92.90;;;20.50;80.14;97584.84;5068899;28;20947;-84
2023/07/21 07:28:59;;;;;;;2.60;1.60;;;19.60;92.80;;;20.52;79.41;97575.56;5068587;28;20492;-84
2023/07/21 07:31:28;;;;;;;1.80;1.40;;;19.60;93.00;;;20.56;78.56;97579.28;5066026;28;20866;-84
2023/07/21 07:33:59;;;;;;;3.63;1.53;;;19.70;92.60;;;20.59;77.82;97577.97;5067162;28;20472;-84
2023/07/21 07:36:30;;;;;;;5.53;2.17;;;19.80;92.30;;;20.63;77.04;97581.69;5067972;28;20861;-84
2023/07/21 07:39:01;;;;;;;2.23;1.60;;;19.80;92.00;;;20.63;74.73;97580.91;5068805;28;20522;-84
2023/07/21 07:41:30;;;;;;;3.47;1.73;;;19.80;91.60;;;20.68;74.79;97578.25;5068748;28;20989;-84
2023/07/21 07:44:02;;;;;;;4.03;1.73;;;19.80;91.50;;;20.67;73.85;97584.63;5067679;28;20466;-85
2023/07/21 07:46:32;;;;;;;2.70;1.63;;;19.80;91.60;;;20.72;73.80;97579.34;5066277;28;20555;-84
2023/07/21 07:49:02;;;;;;;2.70;1.50;;;19.90;91.70;;;20.76;74.03;97585.69;5066886;28;20531;-84
2023/07/21 07:51:31;;;;;;;2.10;1.57;;;19.90;91.60;;;20.80;73.95;97590.22;5065449;28;20820;-84
2023/07/21 07:54:03;;;;;;;3.47;2.07;;;20.00;91.80;;;20.79;72.86;97580.66;5068358;28;20460;-84
2023/07/21 07:56:33;;;;;;;2.53;1.53;;;20.00;91.40;;;20.86;73.10;97588.41;5064947;28;20461;-84
2023/07/21 07:59:04;;;;;;;3.30;1.60;;;20.00;91.30;;;20.84;72.89;97582.53;5065330;28;20966;-84
2023/07/21 08:01:34;;;;;;;9.53;1.60;;;20.10;91.50;;;20.85;72.68;97578.81;5065156;28;20468;-84
2023/07/21 08:04:04;;;;;;;2.67;1.77;;;20.10;91.10;;;20.88;72.04;97580.94;5065996;28;21081;-84
2023/07/21 08:06:36;;;;;;;2.30;1.83;;;20.10;91.30;;;20.92;73.12;97584.69;5065322;28;20966;-84
2023/07/21 08:09:09;;;;;;;2.17;1.47;;;20.10;91.90;;;20.92;76.55;97582.03;5064230;28;21002;-84
2023/07/21 08:11:39;;;;;;;3.80;1.80;;;20.20;92.50;;;20.92;77.08;97590.00;5063964;28;20464;-84
2023/07/21 08:14:10;;;;;;;2.30;1.70;;;20.20;92.70;;;20.91;77.81;97585.72;5066350;28;20929;-84
2023/07/21 08:16:41;;;;;;;5.13;1.73;;;20.20;92.60;;;20.88;77.43;97588.91;5069010;28;20484;-84
2023/07/21 08:19:11;;;;;;;4.17;1.83;;;20.10;92.50;;;20.84;77.48;97593.16;5068230;28;20469;-84
2023/07/21 08:21:42;;;;;;;4.23;2.10;;;20.20;92.60;;;20.82;78.83;97597.97;5062515;28;20949;-85
2023/07/21 08:24:12;;;;;;;2.50;1.73;;;20.20;93.00;;;20.81;79.47;97599.00;5066139;28;20562;-85
2023/07/21 08:26:43;;;;;;;2.47;1.73;;;20.20;92.90;;;20.83;80.56;97607.50;5065358;28;20900;-84
2023/07/21 08:29:15;;;;;;;5.63;2.00;;;20.20;93.30;;;20.82;80.27;97598.75;5064932;28;21030;-85
2023/07/21 08:31:45;;;;;;;2.97;1.73;;;20.00;93.00;;;20.81;80.01;97605.13;5065379;28;20878;-84
2023/07/21 08:34:15;;;;;;;2.00;1.40;;;20.00;93.30;;;20.86;79.82;97607.00;5065204;28;20971;-84
2023/07/21 08:36:45;;;;;;;2.47;1.60;;;20.00;92.90;;;20.88;79.57;97596.91;5066320;28;20805;-84
2023/07/21 08:39:24;;;;;;;2.30;1.67;;;20.00;93.10;;;20.90;78.55;97592.09;5068930;28;20455;-84
2023/07/21 08:41:55;;;;;;;2.30;1.80;;;20.00;93.10;;;20.91;78.27;97599.81;5063945;28;20541;-85
2023/07/21 08:44:27;;;;;;;4.00;2.00;;;20.00;93.00;;;20.89;76.61;97607.28;5065180;28;20496;-84
2023/07/21 08:46:58;;;;;;;8.07;1.73;;;20.00;92.40;;;20.92;76.34;97605.94;5065092;28;20489;-85
2023/07/21 08:49:28;;;;;;;2.50;1.50;;;20.10;92.20;;;20.97;76.30;97608.59;5062393;28;20576;-85
2023/07/21 08:52:00;;;;;;;4.70;1.67;;;20.10;92.30;;;20.98;75.82;97596.91;5068098;28;21148;-84
2023/07/21 08:54:31;;;;;;;2.90;1.90;;;20.20;92.40;;;21.06;76.23;97601.72;5070377;28;20902;-85
2023/07/21 08:57:01;;;;;;;2.80;1.60;;;20.30;92.50;;;21.08;76.25;97604.88;5072738;28;20460;-84
2023/07/21 08:59:33;;;;;;;3.70;1.90;;;20.20;92.50;;;21.13;76.54;97612.91;5071484;28;21032;-84
2023/07/21 09:02:03;;;;;;;3.40;1.70;;;20.30;92.70;;;21.18;77.65;97614.75;5070280;28;20472;-84
2023/07/21 09:04:33;;;;;;;2.00;1.60;;;20.40;92.90;;;21.17;76.02;97614.00;5070677;28;20461;-84
2023/07/21 09:07:04;;;;;;;2.07;1.63;;;20.40;92.10;;;21.24;76.12;97613.72;5070773;28;21133;-84
2023/07/21 09:09:35;;;;;;;3.13;1.60;;;20.40;92.50;;;21.27;77.51;97614.00;5069383;28;21304;-85
2023/07/21 09:12:08;;;;;;;2.83;1.80;;;20.50;92.80;;;21.28;77.97;97618.22;5067650;28;20480;-84
2023/07/21 09:14:40;;;;;;;4.93;2.20;;;20.60;93.10;;;21.29;78.81;97619.84;5068076;28;20480;-84
2023/07/21 09:17:13;;;;;;;4.80;1.90;;;20.50;93.30;;;21.31;77.89;97620.34;5071443;28;20526;-84
2023/07/21 09:19:45;;;;;;;3.03;1.90;;;20.40;92.60;;;21.23;76.02;97618.25;5069381;28;20484;-84
2023/07/21 09:22:15;;;;;;;9.13;1.90;;;20.30;92.50;;;21.27;75.85;97615.84;5067422;28;20469;-84
2023/07/21 09:24:52;;;;;;;8.30;1.87;;;20.30;92.70;;;21.27;76.41;97619.31;5074266;28;20458;-84
2023/07/21 09:27:23;;;;;;;4.63;1.80;;;20.40;92.60;;;21.26;75.86;97616.91;5070688;28;20513;-84
2023/07/21 09:30:01;;;;;;;3.53;2.23;;;20.40;92.50;;;21.29;76.04;97619.03;5069742;28;20581;-85
2023/07/21 09:32:42;;;;;;;3.20;1.67;;;20.50;92.50;;;21.27;76.02;97623.81;5066847;28;20531;-85
2023/07/21 09:35:12;;;;;;;3.33;1.73;;;20.50;92.30;;;21.29;74.69;97619.84;5073821;28;20452;-84
2023/07/21 09:37:44;;;;;;;1.83;1.60;;;20.40;92.10;;;21.31;73.87;97614.25;5069693;28;20840;-84
2023/07/21 09:40:13;;;;;;;3.20;1.73;;;20.40;92.00;;;21.36;74.42;97612.38;5069990;28;20553;-84
2023/07/21 09:42:43;;;;;;;2.33;1.83;;;20.50;92.20;;;21.39;74.82;97611.03;5071814;28;20538;-85
2023/07/21 09:45:15;;;;;;;4.10;1.93;;;20.50;92.30;;;21.43;75.25;97623.56;5067136;28;20475;-85
2023/07/21 09:47:47;;;;;;;2.47;1.70;;;20.60;92.50;;;21.52;75.83;97613.97;5071464;28;20467;-84
2023/07/21 09:50:17;;;;;;;4.47;1.80;;;20.60;92.50;;;21.54;75.27;97619.84;5064685;28;20490;-84
2023/07/21 09:52:49;;;;;;;3.10;1.70;;;20.70;92.40;;;21.54;74.96;97622.50;5069050;28;20460;-84
2023/07/21 09:55:21;;;;;;;3.10;1.97;;;20.80;92.30;;;21.60;74.71;97623.28;5070478;28;20466;-84
2023/07/21 09:57:51;;;;;;;4.33;1.50;;;20.90;92.00;;;21.55;74.19;97626.72;5068357;28;20551;-84
2023/07/21 10:00:27;;;;;;;7.80;2.43;;;20.70;92.00;;;21.63;74.85;97617.41;5065593;28;20472;-84
2023/07/21 10:02:58;;;;;;;5.37;2.07;;;20.80;92.30;;;21.69;74.83;97621.69;5068978;28;20546;-85
2023/07/21 10:05:31;;;;;;;3.10;2.00;;;20.80;92.30;;;21.69;74.21;97623.53;5066945;28;21029;-83
2023/07/21 10:08:03;;;;;;;3.33;1.93;;;20.70;92.40;;;21.67;75.46;97623.81;5067941;28;20471;-85
2023/07/21 10:10:33;;;;;;;3.40;1.60;;;20.80;92.50;;;21.69;76.06;97615.56;5069693;28;20493;-84
2023/07/21 10:13:07;;;;;;;2.77;1.73;;;20.90;92.40;;;21.75;75.57;97619.81;5069292;28;21174;-85
2023/07/21 10:15:40;;;;;;;3.00;1.70;;;20.90;92.70;;;21.83;75.96;97613.94;5068739;28;20491;-84
2023/07/21 10:18:11;;;;;;;6.27;1.97;;;21.00;92.50;;;21.90;74.75;97622.47;5068846;28;20482;-84
2023/07/21 10:20:44;;;;;;;7.23;2.17;;;21.10;92.20;;;21.83;72.92;97617.38;5070426;28;20479;-84
2023/07/21 10:23:15;;;;;;;5.03;1.83;;;21.00;91.50;;;21.86;73.21;97616.06;5065966;28;20513;-84
2023/07/21 10:26:02;;;;;;;3.10;1.93;;;21.00;91.90;;;21.91;73.02;97613.41;5066745;28;20996;-84
2023/07/21 10:28:38;;;;;;;4.93;2.00;;;21.00;91.70;;;21.97;72.79;97607.78;5067424;28;20540;-82
2023/07/21 10:31:46;;;;;;;3.23;1.70;;;21.10;92.00;;;21.97;71.57;97615.00;5066881;28;21467;-84
2023/07/21 10:34:35;;;;;;;3.93;1.60;;;21.20;91.80;;;21.89;69.67;97616.31;5066535;28;20510;-85